sensor_id;sensor_type;location;lat;lon;timestamp;P1;durP1;ratioP1;P2;durP2;ratioP2
22144;SDS011;11238;48.730;11.566;2023-05-29T00:00:12;9.00;;;5.90;;
22144;SDS011;11238;48.730;11.566;2023-05-29T00:02:41;10.60;;;5.82;;
22144;SDS011;11238;48.730;11.566;2023-05-29T00:05:09;8.98;;;5.70;;
22144;SDS011;11238;48.730;11.566;2023-05-29T00:07:36;10.65;;;5.28;;
22144;SDS011;11238;48.730;11.566;2023-05-29T00:10:03;9.10;;;5.25;;
22144;SDS011;11238;48.730;11.566;2023-05-29T00:12:29;7.88;;;5.47;;
22144;SDS011;11238;48.730;11.566;2023-05-29T00:14:55;12.68;;;5.22;;
22144;SDS011;11238;48.730;11.566;2023-05-29T00:17:21;9.95;;;5.50;;
22144;SDS011;11238;48.730;11.566;2023-05-29T00:19:46;8.73;;;5.30;;
22144;SDS011;11238;48.730;11.566;2023-05-29T00:22:13;10.35;;;5.28;;
22144;SDS011;11238;48.730;11.566;2023-05-29T00:24:38;8.85;;;5.00;;
22144;SDS011;11238;48.730;11.566;2023-05-29T00:27:04;9.52;;;5.40;;
22144;SDS011;11238;48.730;11.566;2023-05-29T00:29:30;10.43;;;5.55;;
22144;SDS011;11238;48.730;11.566;2023-05-29T00:31:55;7.85;;;5.30;;
22144;SDS011;11238;48.730;11.566;2023-05-29T00:34:24;12.55;;;4.82;;
22144;SDS011;11238;48.730;11.566;2023-05-29T00:36:50;7.88;;;4.60;;
22144;SDS011;11238;48.730;11.566;2023-05-29T00:39:17;8.80;;;4.80;;
22144;SDS011;11238;48.730;11.566;2023-05-29T00:41:43;9.43;;;5.43;;
22144;SDS011;11238;48.730;11.566;2023-05-29T00:44:09;11.60;;;5.40;;
22144;SDS011;11238;48.730;11.566;2023-05-29T00:46:35;6.60;;;4.28;;
22144;SDS011;11238;48.730;11.566;2023-05-29T00:49:01;7.07;;;4.75;;
22144;SDS011;11238;48.730;11.566;2023-05-29T00:51:29;8.90;;;4.72;;
22144;SDS011;11238;48.730;11.566;2023-05-29T00:53:56;7.65;;;4.78;;
22144;SDS011;11238;48.730;11.566;2023-05-29T00:56:23;12.30;;;5.53;;
22144;SDS011;11238;48.730;11.566;2023-05-29T00:58:51;8.07;;;4.80;;
22144;SDS011;11238;48.730;11.566;2023-05-29T01:01:17;7.78;;;4.53;;
22144;SDS011;11238;48.730;11.566;2023-05-29T01:03:43;8.02;;;4.88;;
22144;SDS011;11238;48.730;11.566;2023-05-29T01:06:12;8.48;;;4.97;;
22144;SDS011;11238;48.730;11.566;2023-05-29T01:08:38;9.02;;;4.53;;
22144;SDS011;11238;48.730;11.566;2023-05-29T01:11:09;9.10;;;5.15;;
22144;SDS011;11238;48.730;11.566;2023-05-29T01:13:45;9.23;;;4.60;;
22144;SDS011;11238;48.730;11.566;2023-05-29T01:16:13;8.68;;;4.38;;
22144;SDS011;11238;48.730;11.566;2023-05-29T01:22:00;12.38;;;5.10;;
22144;SDS011;11238;48.730;11.566;2023-05-29T01:24:49;10.00;;;5.03;;
22144;SDS011;11238;48.730;11.566;2023-05-29T01:27:22;10.93;;;4.87;;
22144;SDS011;11238;48.730;11.566;2023-05-29T01:29:51;9.65;;;4.50;;
22144;SDS011;11238;48.730;11.566;2023-05-29T01:32:20;8.10;;;4.88;;
22144;SDS011;11238;48.730;11.566;2023-05-29T01:34:47;9.50;;;4.80;;
22144;SDS011;11238;48.730;11.566;2023-05-29T01:37:13;9.55;;;5.18;;
22144;SDS011;11238;48.730;11.566;2023-05-29T01:39:39;12.43;;;4.80;;
22144;SDS011;11238;48.730;11.566;2023-05-29T01:42:05;10.38;;;4.82;;
22144;SDS011;11238;48.730;11.566;2023-05-29T01:44:33;9.80;;;5.10;;
22144;SDS011;11238;48.730;11.566;2023-05-29T01:47:00;7.28;;;4.60;;
22144;SDS011;11238;48.730;11.566;2023-05-29T01:49:27;8.70;;;4.70;;
22144;SDS011;11238;48.730;11.566;2023-05-29T01:51:55;10.93;;;5.00;;
22144;SDS011;11238;48.730;11.566;2023-05-29T01:54:21;8.02;;;5.00;;
22144;SDS011;11238;48.730;11.566;2023-05-29T01:56:46;8.48;;;4.85;;
22144;SDS011;11238;48.730;11.566;2023-05-29T01:59:14;7.75;;;4.72;;
22144;SDS011;11238;48.730;11.566;2023-05-29T02:01:41;9.75;;;5.00;;
22144;SDS011;11238;48.730;11.566;2023-05-29T02:04:07;6.25;;;4.57;;
22144;SDS011;11238;48.730;11.566;2023-05-29T02:06:33;12.07;;;5.10;;
22144;SDS011;11238;48.730;11.566;2023-05-29T02:08:59;8.70;;;4.90;;
22144;SDS011;11238;48.730;11.566;2023-05-29T02:11:24;9.57;;;5.13;;
22144;SDS011;11238;48.730;11.566;2023-05-29T02:13:51;8.57;;;4.90;;
22144;SDS011;11238;48.730;11.566;2023-05-29T02:16:17;8.40;;;4.85;;
22144;SDS011;11238;48.730;11.566;2023-05-29T02:18:45;9.95;;;4.95;;
22144;SDS011;11238;48.730;11.566;2023-05-29T02:21:12;9.90;;;4.85;;
22144;SDS011;11238;48.730;11.566;2023-05-29T02:23:38;7.50;;;4.80;;
22144;SDS011;11238;48.730;11.566;2023-05-29T02:26:04;10.38;;;5.03;;
22144;SDS011;11238;48.730;11.566;2023-05-29T02:28:30;9.63;;;4.70;;
22144;SDS011;11238;48.730;11.566;2023-05-29T02:30:56;9.90;;;4.93;;
22144;SDS011;11238;48.730;11.566;2023-05-29T02:33:22;9.77;;;4.97;;
22144;SDS011;11238;48.730;11.566;2023-05-29T02:35:47;9.38;;;4.93;;
22144;SDS011;11238;48.730;11.566;2023-05-29T02:38:13;7.53;;;4.53;;
22144;SDS011;11238;48.730;11.566;2023-05-29T02:40:40;7.80;;;4.50;;
22144;SDS011;11238;48.730;11.566;2023-05-29T02:43:05;7.45;;;4.95;;
22144;SDS011;11238;48.730;11.566;2023-05-29T02:45:35;7.05;;;4.53;;
22144;SDS011;11238;48.730;11.566;2023-05-29T02:48:00;8.05;;;4.60;;
22144;SDS011;11238;48.730;11.566;2023-05-29T02:50:26;9.15;;;4.50;;
22144;SDS011;11238;48.730;11.566;2023-05-29T02:52:53;9.10;;;4.53;;
22144;SDS011;11238;48.730;11.566;2023-05-29T02:55:18;7.55;;;4.65;;
22144;SDS011;11238;48.730;11.566;2023-05-29T02:57:44;9.05;;;4.63;;
22144;SDS011;11238;48.730;11.566;2023-05-29T03:00:10;9.93;;;4.72;;
22144;SDS011;11238;48.730;11.566;2023-05-29T03:02:37;7.97;;;4.70;;
22144;SDS011;11238;48.730;11.566;2023-05-29T03:05:02;9.73;;;4.72;;
22144;SDS011;11238;48.730;11.566;2023-05-29T03:07:29;9.20;;;4.95;;
22144;SDS011;11238;48.730;11.566;2023-05-29T03:09:55;7.50;;;5.28;;
22144;SDS011;11238;48.730;11.566;2023-05-29T03:12:21;8.48;;;5.22;;
22144;SDS011;11238;48.730;11.566;2023-05-29T03:14:47;9.95;;;5.40;;
22144;SDS011;11238;48.730;11.566;2023-05-29T03:17:13;10.90;;;4.88;;
22144;SDS011;11238;48.730;11.566;2023-05-29T03:19:39;8.75;;;5.45;;
22144;SDS011;11238;48.730;11.566;2023-05-29T03:22:06;7.47;;;5.10;;
22144;SDS011;11238;48.730;11.566;2023-05-29T03:24:34;7.70;;;4.75;;
22144;SDS011;11238;48.730;11.566;2023-05-29T03:27:00;10.32;;;5.35;;
22144;SDS011;11238;48.730;11.566;2023-05-29T03:29:31;10.52;;;5.38;;
22144;SDS011;11238;48.730;11.566;2023-05-29T03:31:58;6.45;;;4.57;;
22144;SDS011;11238;48.730;11.566;2023-05-29T03:34:28;8.32;;;5.15;;
22144;SDS011;11238;48.730;11.566;2023-05-29T03:36:56;9.45;;;5.07;;
22144;SDS011;11238;48.730;11.566;2023-05-29T03:39:23;8.77;;;5.28;;
22144;SDS011;11238;48.730;11.566;2023-05-29T03:41:49;6.18;;;4.90;;
22144;SDS011;11238;48.730;11.566;2023-05-29T03:44:16;8.18;;;5.10;;
22144;SDS011;11238;48.730;11.566;2023-05-29T03:46:42;8.57;;;5.32;;
22144;SDS011;11238;48.730;11.566;2023-05-29T03:49:08;6.50;;;4.05;;
22144;SDS011;11238;48.730;11.566;2023-05-29T03:51:35;7.60;;;4.82;;
22144;SDS011;11238;48.730;11.566;2023-05-29T03:54:02;10.23;;;4.55;;
22144;SDS011;11238;48.730;11.566;2023-05-29T03:56:28;11.05;;;4.75;;
22144;SDS011;11238;48.730;11.566;2023-05-29T03:58:55;8.93;;;4.72;;
22144;SDS011;11238;48.730;11.566;2023-05-29T04:01:21;11.80;;;5.07;;
22144;SDS011;11238;48.730;11.566;2023-05-29T04:03:47;9.20;;;4.55;;
22144;SDS011;11238;48.730;11.566;2023-05-29T04:06:13;7.93;;;4.85;;
22144;SDS011;11238;48.730;11.566;2023-05-29T04:08:39;7.20;;;4.72;;
22144;SDS011;11238;48.730;11.566;2023-05-29T04:11:05;7.18;;;4.38;;
22144;SDS011;11238;48.730;11.566;2023-05-29T04:13:31;10.40;;;5.10;;
22144;SDS011;11238;48.730;11.566;2023-05-29T04:15:56;9.52;;;4.93;;
22144;SDS011;11238;48.730;11.566;2023-05-29T04:18:22;9.23;;;4.65;;
22144;SDS011;11238;48.730;11.566;2023-05-29T04:20:48;8.68;;;4.93;;
22144;SDS011;11238;48.730;11.566;2023-05-29T04:23:15;7.93;;;4.57;;
22144;SDS011;11238;48.730;11.566;2023-05-29T04:25:41;9.40;;;4.55;;
22144;SDS011;11238;48.730;11.566;2023-05-29T04:28:09;8.13;;;4.95;;
22144;SDS011;11238;48.730;11.566;2023-05-29T04:30:35;7.72;;;4.40;;
22144;SDS011;11238;48.730;11.566;2023-05-29T04:33:02;8.50;;;5.10;;
22144;SDS011;11238;48.730;11.566;2023-05-29T04:35:28;8.35;;;4.88;;
22144;SDS011;11238;48.730;11.566;2023-05-29T04:37:57;7.93;;;4.20;;
22144;SDS011;11238;48.730;11.566;2023-05-29T04:40:26;8.05;;;4.60;;
22144;SDS011;11238;48.730;11.566;2023-05-29T04:42:52;10.20;;;4.97;;
22144;SDS011;11238;48.730;11.566;2023-05-29T04:45:19;10.25;;;4.72;;
22144;SDS011;11238;48.730;11.566;2023-05-29T04:47:48;9.25;;;4.70;;
22144;SDS011;11238;48.730;11.566;2023-05-29T04:50:17;7.43;;;4.75;;
22144;SDS011;11238;48.730;11.566;2023-05-29T04:52:43;9.07;;;4.63;;
22144;SDS011;11238;48.730;11.566;2023-05-29T04:55:10;6.53;;;4.57;;
22144;SDS011;11238;48.730;11.566;2023-05-29T04:57:36;7.00;;;4.50;;
22144;SDS011;11238;48.730;11.566;2023-05-29T05:00:04;8.95;;;4.30;;
22144;SDS011;11238;48.730;11.566;2023-05-29T05:02:37;7.72;;;4.30;;
22144;SDS011;11238;48.730;11.566;2023-05-29T05:05:02;10.90;;;4.60;;
22144;SDS011;11238;48.730;11.566;2023-05-29T05:07:28;8.43;;;4.60;;
22144;SDS011;11238;48.730;11.566;2023-05-29T05:09:54;8.02;;;4.13;;
22144;SDS011;11238;48.730;11.566;2023-05-29T05:12:24;7.70;;;4.32;;
22144;SDS011;11238;48.730;11.566;2023-05-29T05:14:50;13.10;;;4.97;;
22144;SDS011;11238;48.730;11.566;2023-05-29T05:17:16;9.48;;;4.70;;
22144;SDS011;11238;48.730;11.566;2023-05-29T05:19:42;8.13;;;4.32;;
22144;SDS011;11238;48.730;11.566;2023-05-29T05:22:08;7.30;;;4.20;;
22144;SDS011;11238;48.730;11.566;2023-05-29T05:24:34;7.75;;;4.40;;
22144;SDS011;11238;48.730;11.566;2023-05-29T05:27:01;12.10;;;4.35;;
22144;SDS011;11238;48.730;11.566;2023-05-29T05:29:28;10.05;;;5.00;;
22144;SDS011;11238;48.730;11.566;2023-05-29T05:31:56;8.07;;;4.00;;
22144;SDS011;11238;48.730;11.566;2023-05-29T05:34:22;8.95;;;4.15;;
22144;SDS011;11238;48.730;11.566;2023-05-29T05:36:48;8.25;;;4.32;;
22144;SDS011;11238;48.730;11.566;2023-05-29T05:39:14;9.20;;;4.10;;
22144;SDS011;11238;48.730;11.566;2023-05-29T05:41:44;9.15;;;4.28;;
22144;SDS011;11238;48.730;11.566;2023-05-29T05:44:13;6.60;;;4.20;;
22144;SDS011;11238;48.730;11.566;2023-05-29T05:46:50;6.55;;;4.00;;
22144;SDS011;11238;48.730;11.566;2023-05-29T05:49:16;8.43;;;4.20;;
22144;SDS011;11238;48.730;11.566;2023-05-29T05:51:42;8.38;;;4.50;;
22144;SDS011;11238;48.730;11.566;2023-05-29T05:54:08;7.43;;;4.07;;
22144;SDS011;11238;48.730;11.566;2023-05-29T05:56:34;10.52;;;4.13;;
22144;SDS011;11238;48.730;11.566;2023-05-29T05:59:00;10.52;;;4.00;;
22144;SDS011;11238;48.730;11.566;2023-05-29T06:01:26;7.70;;;3.83;;
22144;SDS011;11238;48.730;11.566;2023-05-29T06:03:52;6.70;;;3.90;;
22144;SDS011;11238;48.730;11.566;2023-05-29T06:06:19;8.63;;;3.75;;
22144;SDS011;11238;48.730;11.566;2023-05-29T06:08:46;9.40;;;4.32;;
22144;SDS011;11238;48.730;11.566;2023-05-29T06:11:12;7.65;;;4.25;;
22144;SDS011;11238;48.730;11.566;2023-05-29T06:13:42;8.45;;;4.05;;
22144;SDS011;11238;48.730;11.566;2023-05-29T06:16:13;6.97;;;3.55;;
22144;SDS011;11238;48.730;11.566;2023-05-29T06:18:40;5.47;;;3.30;;
22144;SDS011;11238;48.730;11.566;2023-05-29T06:21:07;5.82;;;3.50;;
22144;SDS011;11238;48.730;11.566;2023-05-29T06:23:38;7.25;;;3.97;;
22144;SDS011;11238;48.730;11.566;2023-05-29T06:26:03;7.85;;;3.92;;
22144;SDS011;11238;48.730;11.566;2023-05-29T06:28:29;6.45;;;3.58;;
22144;SDS011;11238;48.730;11.566;2023-05-29T06:30:56;8.40;;;3.90;;
22144;SDS011;11238;48.730;11.566;2023-05-29T06:33:24;7.03;;;3.92;;
22144;SDS011;11238;48.730;11.566;2023-05-29T06:35:50;6.78;;;3.42;;
22144;SDS011;11238;48.730;11.566;2023-05-29T06:38:16;8.27;;;3.65;;
22144;SDS011;11238;48.730;11.566;2023-05-29T06:40:42;7.10;;;3.70;;
22144;SDS011;11238;48.730;11.566;2023-05-29T06:43:07;4.80;;;3.42;;
22144;SDS011;11238;48.730;11.566;2023-05-29T06:45:37;7.65;;;3.80;;
22144;SDS011;11238;48.730;11.566;2023-05-29T06:48:04;5.00;;;3.53;;
22144;SDS011;11238;48.730;11.566;2023-05-29T06:50:30;6.03;;;3.78;;
22144;SDS011;11238;48.730;11.566;2023-05-29T06:53:03;5.70;;;3.72;;
22144;SDS011;11238;48.730;11.566;2023-05-29T06:55:46;5.82;;;3.85;;
22144;SDS011;11238;48.730;11.566;2023-05-29T06:58:12;6.57;;;3.60;;
22144;SDS011;11238;48.730;11.566;2023-05-29T07:00:38;5.95;;;3.17;;
22144;SDS011;11238;48.730;11.566;2023-05-29T07:03:27;7.22;;;3.92;;
22144;SDS011;11238;48.730;11.566;2023-05-29T07:05:54;8.57;;;3.65;;
22144;SDS011;11238;48.730;11.566;2023-05-29T07:08:20;6.95;;;3.58;;
22144;SDS011;11238;48.730;11.566;2023-05-29T07:10:46;5.85;;;3.50;;
22144;SDS011;11238;48.730;11.566;2023-05-29T07:13:14;5.07;;;3.05;;
22144;SDS011;11238;48.730;11.566;2023-05-29T07:15:41;6.25;;;3.20;;
22144;SDS011;11238;48.730;11.566;2023-05-29T07:18:09;8.57;;;3.40;;
22144;SDS011;11238;48.730;11.566;2023-05-29T07:20:35;6.13;;;3.25;;
22144;SDS011;11238;48.730;11.566;2023-05-29T07:23:02;9.38;;;3.50;;
22144;SDS011;11238;48.730;11.566;2023-05-29T07:25:29;6.63;;;3.15;;
22144;SDS011;11238;48.730;11.566;2023-05-29T07:27:56;10.15;;;3.65;;
22144;SDS011;11238;48.730;11.566;2023-05-29T07:30:22;8.02;;;3.20;;
22144;SDS011;11238;48.730;11.566;2023-05-29T07:32:49;5.28;;;3.47;;
22144;SDS011;11238;48.730;11.566;2023-05-29T07:35:15;4.82;;;3.03;;
22144;SDS011;11238;48.730;11.566;2023-05-29T07:37:41;8.57;;;4.22;;
22144;SDS011;11238;48.730;11.566;2023-05-29T07:40:11;7.70;;;3.60;;
22144;SDS011;11238;48.730;11.566;2023-05-29T07:43:03;9.43;;;3.90;;
22144;SDS011;11238;48.730;11.566;2023-05-29T07:45:43;10.88;;;3.83;;
22144;SDS011;11238;48.730;11.566;2023-05-29T07:48:09;7.78;;;3.67;;
22144;SDS011;11238;48.730;11.566;2023-05-29T07:50:35;7.88;;;3.40;;
22144;SDS011;11238;48.730;11.566;2023-05-29T07:53:02;5.80;;;3.55;;
22144;SDS011;11238;48.730;11.566;2023-05-29T07:55:29;7.07;;;3.35;;
22144;SDS011;11238;48.730;11.566;2023-05-29T07:57:56;6.50;;;3.15;;
22144;SDS011;11238;48.730;11.566;2023-05-29T08:00:22;7.60;;;3.70;;
22144;SDS011;11238;48.730;11.566;2023-05-29T08:02:50;5.55;;;3.40;;
22144;SDS011;11238;48.730;11.566;2023-05-29T08:05:29;5.63;;;3.25;;
22144;SDS011;11238;48.730;11.566;2023-05-29T08:07:59;10.23;;;3.38;;
22144;SDS011;11238;48.730;11.566;2023-05-29T08:10:27;8.18;;;2.83;;
22144;SDS011;11238;48.730;11.566;2023-05-29T08:12:53;7.57;;;3.47;;
22144;SDS011;11238;48.730;11.566;2023-05-29T08:15:19;6.60;;;3.47;;
22144;SDS011;11238;48.730;11.566;2023-05-29T08:17:45;3.97;;;3.03;;
22144;SDS011;11238;48.730;11.566;2023-05-29T08:20:10;5.20;;;3.17;;
22144;SDS011;11238;48.730;11.566;2023-05-29T08:22:36;5.90;;;3.40;;
22144;SDS011;11238;48.730;11.566;2023-05-29T08:25:03;5.18;;;3.20;;
22144;SDS011;11238;48.730;11.566;2023-05-29T08:27:29;7.13;;;3.10;;
22144;SDS011;11238;48.730;11.566;2023-05-29T08:29:54;7.13;;;2.80;;
22144;SDS011;11238;48.730;11.566;2023-05-29T08:32:20;5.05;;;3.33;;
22144;SDS011;11238;48.730;11.566;2023-05-29T08:34:46;7.95;;;3.13;;
22144;SDS011;11238;48.730;11.566;2023-05-29T08:37:13;8.82;;;3.25;;
22144;SDS011;11238;48.730;11.566;2023-05-29T08:39:38;5.15;;;3.15;;
22144;SDS011;11238;48.730;11.566;2023-05-29T08:42:05;6.05;;;2.65;;
22144;SDS011;11238;48.730;11.566;2023-05-29T08:44:36;4.53;;;2.75;;
22144;SDS011;11238;48.730;11.566;2023-05-29T08:47:06;6.47;;;3.05;;
22144;SDS011;11238;48.730;11.566;2023-05-29T08:49:42;6.13;;;3.53;;
22144;SDS011;11238;48.730;11.566;2023-05-29T08:52:12;7.90;;;3.30;;
22144;SDS011;11238;48.730;11.566;2023-05-29T08:54:44;6.20;;;3.45;;
22144;SDS011;11238;48.730;11.566;2023-05-29T08:57:12;5.28;;;3.03;;
22144;SDS011;11238;48.730;11.566;2023-05-29T08:59:39;7.68;;;3.72;;
22144;SDS011;11238;48.730;11.566;2023-05-29T09:02:07;5.68;;;3.35;;
22144;SDS011;11238;48.730;11.566;2023-05-29T09:04:33;5.82;;;3.20;;
22144;SDS011;11238;48.730;11.566;2023-05-29T09:06:59;5.28;;;3.03;;
22144;SDS011;11238;48.730;11.566;2023-05-29T09:09:25;5.90;;;3.13;;
22144;SDS011;11238;48.730;11.566;2023-05-29T09:11:52;5.57;;;3.47;;
22144;SDS011;11238;48.730;11.566;2023-05-29T09:17:14;4.97;;;3.20;;
22144;SDS011;11238;48.730;11.566;2023-05-29T09:19:40;6.78;;;3.28;;
22144;SDS011;11238;48.730;11.566;2023-05-29T09:22:09;7.03;;;3.42;;
22144;SDS011;11238;48.730;11.566;2023-05-29T09:24:36;4.85;;;2.85;;
22144;SDS011;11238;48.730;11.566;2023-05-29T09:27:03;6.70;;;3.40;;
22144;SDS011;11238;48.730;11.566;2023-05-29T09:29:31;6.35;;;3.53;;
22144;SDS011;11238;48.730;11.566;2023-05-29T09:31:57;5.05;;;3.17;;
22144;SDS011;11238;48.730;11.566;2023-05-29T09:34:26;5.97;;;3.67;;
22144;SDS011;11238;48.730;11.566;2023-05-29T09:36:53;4.47;;;3.00;;
22144;SDS011;11238;48.730;11.566;2023-05-29T09:39:28;5.25;;;2.70;;
22144;SDS011;11238;48.730;11.566;2023-05-29T09:41:53;5.88;;;3.28;;
22144;SDS011;11238;48.730;11.566;2023-05-29T09:44:20;6.63;;;3.40;;
22144;SDS011;11238;48.730;11.566;2023-05-29T09:46:48;6.80;;;3.17;;
22144;SDS011;11238;48.730;11.566;2023-05-29T09:49:14;8.32;;;3.15;;
22144;SDS011;11238;48.730;11.566;2023-05-29T09:51:41;8.15;;;3.38;;
22144;SDS011;11238;48.730;11.566;2023-05-29T09:54:16;5.57;;;3.25;;
22144;SDS011;11238;48.730;11.566;2023-05-29T09:56:45;3.50;;;2.78;;
22144;SDS011;11238;48.730;11.566;2023-05-29T09:59:13;8.18;;;3.72;;
22144;SDS011;11238;48.730;11.566;2023-05-29T10:01:40;5.30;;;3.40;;
22144;SDS011;11238;48.730;11.566;2023-05-29T10:04:07;5.82;;;3.10;;
22144;SDS011;11238;48.730;11.566;2023-05-29T10:06:37;7.45;;;3.95;;
22144;SDS011;11238;48.730;11.566;2023-05-29T10:09:07;5.15;;;3.42;;
22144;SDS011;11238;48.730;11.566;2023-05-29T10:11:36;5.38;;;3.40;;
22144;SDS011;11238;48.730;11.566;2023-05-29T10:14:05;5.75;;;3.78;;
22144;SDS011;11238;48.730;11.566;2023-05-29T10:16:32;6.30;;;3.70;;
22144;SDS011;11238;48.730;11.566;2023-05-29T10:19:02;9.68;;;3.45;;
22144;SDS011;11238;48.730;11.566;2023-05-29T10:21:36;4.95;;;3.30;;
22144;SDS011;11238;48.730;11.566;2023-05-29T10:24:04;7.47;;;3.58;;
22144;SDS011;11238;48.730;11.566;2023-05-29T10:26:34;5.32;;;3.40;;
22144;SDS011;11238;48.730;11.566;2023-05-29T10:39:51;6.05;;;3.47;;
22144;SDS011;11238;48.730;11.566;2023-05-29T10:42:40;7.68;;;3.33;;
22144;SDS011;11238;48.730;11.566;2023-05-29T10:45:10;7.10;;;3.10;;
22144;SDS011;11238;48.730;11.566;2023-05-29T10:47:38;6.18;;;3.15;;
22144;SDS011;11238;48.730;11.566;2023-05-29T10:50:05;5.53;;;3.22;;
22144;SDS011;11238;48.730;11.566;2023-05-29T10:52:34;4.80;;;3.05;;
22144;SDS011;11238;48.730;11.566;2023-05-29T10:55:00;7.07;;;3.00;;
22144;SDS011;11238;48.730;11.566;2023-05-29T10:57:29;6.18;;;2.90;;
22144;SDS011;11238;48.730;11.566;2023-05-29T11:00:04;3.50;;;2.70;;
22144;SDS011;11238;48.730;11.566;2023-05-29T11:02:32;5.13;;;3.17;;
22144;SDS011;11238;48.730;11.566;2023-05-29T11:05:05;7.05;;;3.00;;
22144;SDS011;11238;48.730;11.566;2023-05-29T11:13:33;6.38;;;2.88;;
22144;SDS011;11238;48.730;11.566;2023-05-29T11:18:51;7.60;;;2.95;;
22144;SDS011;11238;48.730;11.566;2023-05-29T11:23:59;5.00;;;3.00;;
22144;SDS011;11238;48.730;11.566;2023-05-29T11:26:30;5.38;;;3.13;;
22144;SDS011;11238;48.730;11.566;2023-05-29T11:28:57;4.78;;;2.70;;
22144;SDS011;11238;48.730;11.566;2023-05-29T11:31:32;5.88;;;3.17;;
22144;SDS011;11238;48.730;11.566;2023-05-29T11:34:00;6.65;;;3.03;;
22144;SDS011;11238;48.730;11.566;2023-05-29T11:36:30;6.30;;;2.80;;
22144;SDS011;11238;48.730;11.566;2023-05-29T11:38:57;9.60;;;3.05;;
22144;SDS011;11238;48.730;11.566;2023-05-29T11:41:25;4.18;;;2.70;;
22144;SDS011;11238;48.730;11.566;2023-05-29T11:43:55;5.18;;;2.83;;
22144;SDS011;11238;48.730;11.566;2023-05-29T11:46:26;6.10;;;2.80;;
22144;SDS011;11238;48.730;11.566;2023-05-29T11:48:53;6.72;;;2.80;;
22144;SDS011;11238;48.730;11.566;2023-05-29T11:51:19;4.65;;;3.05;;
22144;SDS011;11238;48.730;11.566;2023-05-29T11:53:46;4.07;;;2.67;;
22144;SDS011;11238;48.730;11.566;2023-05-29T11:56:13;7.25;;;2.85;;
22144;SDS011;11238;48.730;11.566;2023-05-29T11:58:40;6.18;;;2.72;;
22144;SDS011;11238;48.730;11.566;2023-05-29T12:01:06;6.40;;;2.88;;
22144;SDS011;11238;48.730;11.566;2023-05-29T12:03:39;6.63;;;2.95;;
22144;SDS011;11238;48.730;11.566;2023-05-29T12:08:33;4.97;;;2.97;;
22144;SDS011;11238;48.730;11.566;2023-05-29T12:10:59;6.35;;;2.90;;
22144;SDS011;11238;48.730;11.566;2023-05-29T12:13:25;6.93;;;3.10;;
22144;SDS011;11238;48.730;11.566;2023-05-29T12:15:52;7.43;;;2.80;;
22144;SDS011;11238;48.730;11.566;2023-05-29T12:18:21;5.30;;;3.20;;
22144;SDS011;11238;48.730;11.566;2023-05-29T12:20:47;3.53;;;2.38;;
22144;SDS011;11238;48.730;11.566;2023-05-29T12:23:34;4.00;;;2.50;;
22144;SDS011;11238;48.730;11.566;2023-05-29T12:26:03;5.65;;;2.63;;
22144;SDS011;11238;48.730;11.566;2023-05-29T12:28:30;5.63;;;2.70;;
22144;SDS011;11238;48.730;11.566;2023-05-29T12:30:59;5.22;;;3.03;;
22144;SDS011;11238;48.730;11.566;2023-05-29T12:33:29;4.60;;;2.70;;
22144;SDS011;11238;48.730;11.566;2023-05-29T12:36:17;7.22;;;2.67;;
22144;SDS011;11238;48.730;11.566;2023-05-29T12:38:46;3.67;;;2.70;;
22144;SDS011;11238;48.730;11.566;2023-05-29T12:41:28;5.25;;;2.78;;
22144;SDS011;11238;48.730;11.566;2023-05-29T12:43:56;5.93;;;2.45;;
22144;SDS011;11238;48.730;11.566;2023-05-29T12:46:23;4.25;;;2.50;;
22144;SDS011;11238;48.730;11.566;2023-05-29T12:48:49;5.78;;;2.30;;
22144;SDS011;11238;48.730;11.566;2023-05-29T12:51:24;6.00;;;2.25;;
22144;SDS011;11238;48.730;11.566;2023-05-29T12:53:56;4.13;;;2.92;;
22144;SDS011;11238;48.730;11.566;2023-05-29T12:56:26;4.60;;;2.47;;
22144;SDS011;11238;48.730;11.566;2023-05-29T12:58:52;6.90;;;2.80;;
22144;SDS011;11238;48.730;11.566;2023-05-29T13:01:18;7.88;;;2.45;;
22144;SDS011;11238;48.730;11.566;2023-05-29T13:03:43;4.43;;;2.47;;
22144;SDS011;11238;48.730;11.566;2023-05-29T13:06:10;5.50;;;2.70;;
22144;SDS011;11238;48.730;11.566;2023-05-29T13:08:35;5.13;;;2.38;;
22144;SDS011;11238;48.730;11.566;2023-05-29T13:11:02;4.63;;;2.60;;
22144;SDS011;11238;48.730;11.566;2023-05-29T13:13:27;6.93;;;2.42;;
22144;SDS011;11238;48.730;11.566;2023-05-29T13:15:53;3.55;;;2.40;;
22144;SDS011;11238;48.730;11.566;2023-05-29T13:18:19;5.88;;;2.60;;
22144;SDS011;11238;48.730;11.566;2023-05-29T13:20:44;4.65;;;2.60;;
22144;SDS011;11238;48.730;11.566;2023-05-29T13:23:10;4.38;;;2.40;;
22144;SDS011;11238;48.730;11.566;2023-05-29T13:25:36;4.38;;;2.45;;
22144;SDS011;11238;48.730;11.566;2023-05-29T13:28:01;3.60;;;2.42;;
22144;SDS011;11238;48.730;11.566;2023-05-29T13:30:27;5.03;;;2.50;;
22144;SDS011;11238;48.730;11.566;2023-05-29T13:32:53;6.63;;;2.50;;
22144;SDS011;11238;48.730;11.566;2023-05-29T13:35:19;3.47;;;2.28;;
22144;SDS011;11238;48.730;11.566;2023-05-29T13:37:45;4.97;;;2.50;;
22144;SDS011;11238;48.730;11.566;2023-05-29T13:40:11;4.03;;;2.20;;
22144;SDS011;11238;48.730;11.566;2023-05-29T13:42:38;4.55;;;2.25;;
22144;SDS011;11238;48.730;11.566;2023-05-29T13:45:05;4.60;;;2.35;;
22144;SDS011;11238;48.730;11.566;2023-05-29T13:47:32;3.80;;;2.22;;
22144;SDS011;11238;48.730;11.566;2023-05-29T13:49:58;4.40;;;2.30;;
22144;SDS011;11238;48.730;11.566;2023-05-29T13:52:25;3.75;;;2.45;;
22144;SDS011;11238;48.730;11.566;2023-05-29T13:54:51;3.97;;;2.55;;
22144;SDS011;11238;48.730;11.566;2023-05-29T13:57:17;2.90;;;2.22;;
22144;SDS011;11238;48.730;11.566;2023-05-29T13:59:43;3.95;;;2.33;;
22144;SDS011;11238;48.730;11.566;2023-05-29T14:02:09;4.68;;;2.30;;
22144;SDS011;11238;48.730;11.566;2023-05-29T14:04:35;3.45;;;2.50;;
22144;SDS011;11238;48.730;11.566;2023-05-29T14:07:00;5.40;;;2.40;;
22144;SDS011;11238;48.730;11.566;2023-05-29T14:09:26;3.80;;;2.60;;
22144;SDS011;11238;48.730;11.566;2023-05-29T14:11:56;3.65;;;2.30;;
22144;SDS011;11238;48.730;11.566;2023-05-29T14:14:24;4.38;;;2.50;;
22144;SDS011;11238;48.730;11.566;2023-05-29T14:16:50;3.58;;;2.30;;
22144;SDS011;11238;48.730;11.566;2023-05-29T14:19:17;3.83;;;2.50;;
22144;SDS011;11238;48.730;11.566;2023-05-29T14:21:52;3.92;;;2.33;;
22144;SDS011;11238;48.730;11.566;2023-05-29T14:24:18;3.45;;;2.13;;
22144;SDS011;11238;48.730;11.566;2023-05-29T14:26:44;4.80;;;2.40;;
22144;SDS011;11238;48.730;11.566;2023-05-29T14:29:12;4.47;;;2.25;;
22144;SDS011;11238;48.730;11.566;2023-05-29T14:31:39;4.75;;;2.63;;
22144;SDS011;11238;48.730;11.566;2023-05-29T14:34:05;5.03;;;2.63;;
22144;SDS011;11238;48.730;11.566;2023-05-29T14:36:31;3.17;;;2.50;;
22144;SDS011;11238;48.730;11.566;2023-05-29T14:38:57;3.47;;;2.58;;
22144;SDS011;11238;48.730;11.566;2023-05-29T14:41:22;3.90;;;2.25;;
22144;SDS011;11238;48.730;11.566;2023-05-29T14:43:50;5.13;;;2.50;;
22144;SDS011;11238;48.730;11.566;2023-05-29T14:46:17;5.10;;;2.35;;
22144;SDS011;11238;48.730;11.566;2023-05-29T14:48:42;4.00;;;2.40;;
22144;SDS011;11238;48.730;11.566;2023-05-29T14:51:08;3.92;;;2.50;;
22144;SDS011;11238;48.730;11.566;2023-05-29T14:53:35;3.63;;;2.40;;
22144;SDS011;11238;48.730;11.566;2023-05-29T14:56:01;3.00;;;2.47;;
22144;SDS011;11238;48.730;11.566;2023-05-29T14:58:27;4.07;;;2.60;;
22144;SDS011;11238;48.730;11.566;2023-05-29T15:00:53;5.90;;;2.50;;
22144;SDS011;11238;48.730;11.566;2023-05-29T15:03:19;4.22;;;2.30;;
22144;SDS011;11238;48.730;11.566;2023-05-29T15:05:45;3.88;;;2.60;;